sensor_id;sensor_type;location;lat;lon;timestamp;pressure;altitude;pressure_sealevel;temperature;humidity
63111;BME280;49201;53.426;10.300;2023-01-24T00:00:30;104126.97;;;3.40;100.00
63111;BME280;49201;53.426;10.300;2023-01-24T00:02:56;104121.03;;;3.40;100.00
63111;BME280;49201;53.426;10.300;2023-01-24T00:05:21;104119.38;;;3.40;100.00
63111;BME280;49201;53.426;10.300;2023-01-24T00:07:47;104116.84;;;3.40;100.00
63111;BME280;49201;53.426;10.300;2023-01-24T00:10:12;104120.13;;;3.39;100.00
63111;BME280;49201;53.426;10.300;2023-01-24T00:12:38;104115.66;;;3.37;100.00
63111;BME280;49201;53.426;10.300;2023-01-24T00:15:04;104115.66;;;3.37;100.00
63111;BME280;49201;53.426;10.300;2023-01-24T00:17:29;104121.63;;;3.37;100.00
63111;BME280;49201;53.426;10.300;2023-01-24T00:19:55;104119.38;;;3.40;100.00
63111;BME280;49201;53.426;10.300;2023-01-24T00:22:20;104114.16;;;3.39;100.00
63111;BME280;49201;53.426;10.300;2023-01-24T00:24:47;104108.97;;;3.37;100.00
63111;BME280;49201;53.426;10.300;2023-01-24T00:27:17;104103.75;;;3.36;100.00
63111;BME280;49201;53.426;10.300;2023-01-24T00:29:42;104105.06;;;3.32;100.00
63111;BME280;49201;53.426;10.300;2023-01-24T00:32:08;104111.63;;;3.30;100.00
63111;BME280;49201;53.426;10.300;2023-01-24T00:34:34;104112.66;;;3.32;100.00
63111;BME280;49201;53.426;10.300;2023-01-24T00:36:59;104104.94;;;3.31;100.00
63111;BME280;49201;53.426;10.300;2023-01-24T00:39:25;104103.28;;;3.31;100.00
63111;BME280;49201;53.426;10.300;2023-01-24T00:41:52;104107.91;;;3.35;100.00
63111;BME280;49201;53.426;10.300;2023-01-24T00:44:17;104103.00;;;3.37;100.00
63111;BME280;49201;53.426;10.300;2023-01-24T00:46:44;104095.84;;;3.33;100.00
63111;BME280;49201;53.426;10.300;2023-01-24T00:49:10;104092.41;;;3.32;100.00
63111;BME280;49201;53.426;10.300;2023-01-24T00:51:36;104089.56;;;3.29;100.00
63111;BME280;49201;53.426;10.300;2023-01-24T00:54:01;104086.88;;;3.28;100.00
63111;BME280;49201;53.426;10.300;2023-01-24T00:56:27;104085.97;;;3.27;100.00
63111;BME280;49201;53.426;10.300;2023-01-24T00:58:52;104087.91;;;3.30;100.00
63111;BME280;49201;53.426;10.300;2023-01-24T01:01:19;104083.94;;;3.32;100.00
63111;BME280;49201;53.426;10.300;2023-01-24T01:03:44;104080.47;;;3.31;100.00
63111;BME280;49201;53.426;10.300;2023-01-24T01:06:13;104084.66;;;3.31;100.00
63111;BME280;49201;53.426;10.300;2023-01-24T01:08:39;104084.34;;;3.28;100.00
63111;BME280;49201;53.426;10.300;2023-01-24T01:11:04;104085.84;;;3.26;100.00
63111;BME280;49201;53.426;10.300;2023-01-24T01:13:30;104087.63;;;3.27;100.00
63111;BME280;49201;53.426;10.300;2023-01-24T01:16:04;104094.47;;;3.28;100.00
63111;BME280;49201;53.426;10.300;2023-01-24T01:18:30;104088.81;;;3.30;100.00
63111;BME280;49201;53.426;10.300;2023-01-24T01:20:56;104092.97;;;3.30;100.00
63111;BME280;49201;53.426;10.300;2023-01-24T01:23:21;104091.34;;;3.30;100.00
63111;BME280;49201;53.426;10.300;2023-01-24T01:25:46;104088.81;;;3.30;100.00
63111;BME280;49201;53.426;10.300;2023-01-24T01:28:12;104088.81;;;3.30;100.00
63111;BME280;49201;53.426;10.300;2023-01-24T01:30:37;104082.72;;;3.28;100.00
63111;BME280;49201;53.426;10.300;2023-01-24T01:33:03;104076.16;;;3.30;100.00
63111;BME280;49201;53.426;10.300;2023-01-24T01:35:28;104069.59;;;3.24;100.00
63111;BME280;49201;53.426;10.300;2023-01-24T01:37:53;104074.81;;;3.25;100.00
63111;BME280;49201;53.426;10.300;2023-01-24T01:40:19;104080.91;;;3.27;100.00
63111;BME280;49201;53.426;10.300;2023-01-24T01:42:55;104070.19;;;3.30;100.00
63111;BME280;49201;53.426;10.300;2023-01-24T01:48:37;104078.38;;;3.27;100.00
63111;BME280;49201;53.426;10.300;2023-01-24T01:51:15;104080.91;;;3.27;100.00
63111;BME280;49201;53.426;10.300;2023-01-24T01:53:50;104083.44;;;3.27;100.00
63111;BME280;49201;53.426;10.300;2023-01-24T01:56:27;104064.84;;;3.27;100.00
63111;BME280;49201;53.426;10.300;2023-01-24T01:58:57;104067.38;;;3.27;100.00
63111;BME280;49201;53.426;10.300;2023-01-24T02:01:24;104065.72;;;3.27;100.00
63111;BME280;49201;53.426;10.300;2023-01-24T02:03:53;104063.66;;;3.23;100.00
63111;BME280;49201;53.426;10.300;2023-01-24T02:09:32;104069.44;;;3.22;100.00
63111;BME280;49201;53.426;10.300;2023-01-24T02:12:01;104069.75;;;3.25;100.00
63111;BME280;49201;53.426;10.300;2023-01-24T02:14:29;104068.72;;;3.23;100.00
63111;BME280;49201;53.426;10.300;2023-01-24T02:17:16;104060.81;;;3.20;100.00
63111;BME280;49201;53.426;10.300;2023-01-24T02:20:00;104062.28;;;3.18;100.00
63111;BME280;49201;53.426;10.300;2023-01-24T02:25:03;104062.59;;;3.21;100.00
63111;BME280;49201;53.426;10.300;2023-01-24T02:27:31;104068.56;;;3.22;100.00
63111;BME280;49201;53.426;10.300;2023-01-24T02:29:58;104057.38;;;3.20;100.00
63111;BME280;49201;53.426;10.300;2023-01-24T02:32:24;104069.88;;;3.18;100.00
63111;BME280;49201;53.426;10.300;2023-01-24T02:34:50;104066.63;;;3.19;100.00
63111;BME280;49201;53.426;10.300;2023-01-24T02:37:18;104071.69;;;3.19;100.00
63111;BME280;49201;53.426;10.300;2023-01-24T02:39:57;104072.97;;;3.16;100.00
63111;BME280;49201;53.426;10.300;2023-01-24T02:42:26;104074.81;;;3.17;100.00
63111;BME280;49201;53.426;10.300;2023-01-24T02:45:14;104065.72;;;3.19;100.00
63111;BME280;49201;53.426;10.300;2023-01-24T02:47:45;104065.72;;;3.19;100.00
63111;BME280;49201;53.426;10.300;2023-01-24T02:50:11;104063.19;;;3.19;100.00
63111;BME280;49201;53.426;10.300;2023-01-24T02:52:37;104067.50;;;3.20;100.00
63111;BME280;49201;53.426;10.300;2023-01-24T02:55:21;104067.22;;;3.17;100.00
63111;BME280;49201;53.426;10.300;2023-01-24T02:57:47;104071.19;;;3.15;100.00
63111;BME280;49201;53.426;10.300;2023-01-24T03:00:39;104077.75;;;3.13;100.00
63111;BME280;49201;53.426;10.300;2023-01-24T03:03:07;104081.16;;;3.13;100.00
63111;BME280;49201;53.426;10.300;2023-01-24T03:05:33;104080.28;;;3.13;100.00
63111;BME280;49201;53.426;10.300;2023-01-24T03:08:14;104077.59;;;3.11;100.00
63111;BME280;49201;53.426;10.300;2023-01-24T03:10:41;104082.50;;;3.10;100.00
63111;BME280;49201;53.426;10.300;2023-01-24T03:13:06;104073.88;;;3.08;100.00
63111;BME280;49201;53.426;10.300;2023-01-24T03:15:50;104078.03;;;3.07;100.00
63111;BME280;49201;53.426;10.300;2023-01-24T03:18:34;104084.00;;;3.08;100.00
63111;BME280;49201;53.426;10.300;2023-01-24T03:21:18;104081.47;;;3.08;100.00
63111;BME280;49201;53.426;10.300;2023-01-24T03:24:02;104081.47;;;3.08;100.00
63111;BME280;49201;53.426;10.300;2023-01-24T03:26:46;104084.00;;;3.08;100.00
63111;BME280;49201;53.426;10.300;2023-01-24T03:29:31;104087.56;;;3.10;100.00
63111;BME280;49201;53.426;10.300;2023-01-24T03:32:15;104093.53;;;3.10;100.00
63111;BME280;49201;53.426;10.300;2023-01-24T03:34:59;104092.78;;;3.11;100.00
63111;BME280;49201;53.426;10.300;2023-01-24T03:37:29;104090.69;;;3.07;100.00
63111;BME280;49201;53.426;10.300;2023-01-24T03:40:15;104089.94;;;3.08;100.00
63111;BME280;49201;53.426;10.300;2023-01-24T03:42:42;104095.56;;;3.06;100.00
63111;BME280;49201;53.426;10.300;2023-01-24T03:45:27;104094.53;;;3.04;100.00
63111;BME280;49201;53.426;10.300;2023-01-24T03:48:00;104099.44;;;3.02;100.00
63111;BME280;49201;53.426;10.300;2023-01-24T03:50:29;104101.22;;;3.03;100.00
63111;BME280;49201;53.426;10.300;2023-01-24T03:53:14;104104.34;;;3.01;100.00
63111;BME280;49201;53.426;10.300;2023-01-24T03:55:43;104098.69;;;3.03;100.00
63111;BME280;49201;53.426;10.300;2023-01-24T03:58:09;104100.81;;;3.07;100.00
63111;BME280;49201;53.426;10.300;2023-01-24T04:00:36;104097.53;;;3.08;100.00
63111;BME280;49201;53.426;10.300;2023-01-24T04:03:08;104097.53;;;3.08;100.00
63111;BME280;49201;53.426;10.300;2023-01-24T04:05:35;104084.41;;;3.04;100.00
63111;BME280;49201;53.426;10.300;2023-01-24T04:08:01;104090.22;;;3.03;100.00
63111;BME280;49201;53.426;10.300;2023-01-24T04:10:28;104084.25;;;3.02;100.00
63111;BME280;49201;53.426;10.300;2023-01-24T04:12:54;104087.69;;;3.03;100.00
63111;BME280;49201;53.426;10.300;2023-01-24T04:15:23;104089.66;;;3.05;100.00
63111;BME280;49201;53.426;10.300;2023-01-24T04:17:59;104095.41;;;3.04;100.00
63111;BME280;49201;53.426;10.300;2023-01-24T04:20:27;104101.06;;;3.02;100.00
63111;BME280;49201;53.426;10.300;2023-01-24T04:22:54;104102.13;;;3.04;100.00
63111;BME280;49201;53.426;10.300;2023-01-24T04:25:20;104092.88;;;3.04;100.00
63111;BME280;49201;53.426;10.300;2023-01-24T04:27:46;104091.25;;;3.05;100.00
63111;BME280;49201;53.426;10.300;2023-01-24T04:30:15;104096.16;;;3.03;100.00
63111;BME280;49201;53.426;10.300;2023-01-24T04:32:44;104099.44;;;3.02;100.00
63111;BME280;49201;53.426;10.300;2023-01-24T04:35:20;104103.59;;;3.02;100.00
63111;BME280;49201;53.426;10.300;2023-01-24T04:37:49;104101.22;;;3.03;100.00
63111;BME280;49201;53.426;10.300;2023-01-24T04:40:23;104110.31;;;3.01;100.00
63111;BME280;49201;53.426;10.300;2023-01-24T04:42:49;104103.75;;;3.03;100.00
63111;BME280;49201;53.426;10.300;2023-01-24T04:45:14;104108.22;;;3.06;100.00
63111;BME280;49201;53.426;10.300;2023-01-24T04:47:40;104107.34;;;3.05;100.00
63111;BME280;49201;53.426;10.300;2023-01-24T04:50:07;104105.69;;;3.06;100.00
63111;BME280;49201;53.426;10.300;2023-01-24T04:52:33;104112.72;;;3.08;100.00
63111;BME280;49201;53.426;10.300;2023-01-24T04:55:04;104110.31;;;3.01;100.00
63111;BME280;49201;53.426;10.300;2023-01-24T04:57:30;104105.09;;;3.00;100.00
63111;BME280;49201;53.426;10.300;2023-01-24T04:59:58;104105.50;;;2.96;100.00
63111;BME280;49201;53.426;10.300;2023-01-24T05:02:23;104111.47;;;2.96;100.00
63111;BME280;49201;53.426;10.300;2023-01-24T05:04:49;104102.41;;;2.98;100.00
63111;BME280;49201;53.426;10.300;2023-01-24T05:07:15;104101.50;;;2.98;100.00
63111;BME280;49201;53.426;10.300;2023-01-24T05:09:44;104110.75;;;2.97;100.00
63111;BME280;49201;53.426;10.300;2023-01-24T05:12:11;104104.19;;;2.99;100.00
63111;BME280;49201;53.426;10.300;2023-01-24T05:14:36;104105.25;;;3.01;100.00
63111;BME280;49201;53.426;10.300;2023-01-24T05:17:02;104106.13;;;3.02;100.00
63111;BME280;49201;53.426;10.300;2023-01-24T05:19:30;104106.88;;;3.01;100.00
63111;BME280;49201;53.426;10.300;2023-01-24T05:21:56;104102.56;;;3.00;100.00
63111;BME280;49201;53.426;10.300;2023-01-24T05:24:21;104104.50;;;3.02;100.00
63111;BME280;49201;53.426;10.300;2023-01-24T05:26:47;104104.66;;;3.04;100.00
63111;BME280;49201;53.426;10.300;2023-01-24T05:29:17;104110.59;;;3.04;100.00
63111;BME280;49201;53.426;10.300;2023-01-24T05:31:47;104108.41;;;3.07;100.00
63111;BME280;49201;53.426;10.300;2023-01-24T05:34:12;104102.13;;;3.04;100.00
63111;BME280;49201;53.426;10.300;2023-01-24T05:36:38;104102.31;;;3.05;100.00
63111;BME280;49201;53.426;10.300;2023-01-24T05:39:04;104103.59;;;3.02;100.00
63111;BME280;49201;53.426;10.300;2023-01-24T05:41:32;104111.06;;;3.00;100.00
63111;BME280;49201;53.426;10.300;2023-01-24T05:43:58;104101.66;;;2.99;100.00
63111;BME280;49201;53.426;10.300;2023-01-24T05:46:28;104105.69;;;2.97;100.00
63111;BME280;49201;53.426;10.300;2023-01-24T05:49:16;104110.75;;;2.97;100.00
63111;BME280;49201;53.426;10.300;2023-01-24T05:51:43;104104.75;;;2.97;100.00
63111;BME280;49201;53.426;10.300;2023-01-24T05:54:10;104112.53;;;2.98;100.00
63111;BME280;49201;53.426;10.300;2023-01-24T05:56:51;104117.00;;;3.01;100.00
63111;BME280;49201;53.426;10.300;2023-01-24T05:59:16;104113.28;;;2.97;100.00
63111;BME280;49201;53.426;10.300;2023-01-24T06:01:42;104104.03;;;2.98;100.00
63111;BME280;49201;53.426;10.300;2023-01-24T06:04:08;104110.16;;;3.00;100.00
63111;BME280;49201;53.426;10.300;2023-01-24T06:06:34;104105.25;;;3.01;100.00
63111;BME280;49201;53.426;10.300;2023-01-24T06:08:59;104110.47;;;3.03;100.00
63111;BME280;49201;53.426;10.300;2023-01-24T06:11:26;104109.09;;;2.98;100.00
63111;BME280;49201;53.426;10.300;2023-01-24T06:13:57;104119.19;;;2.98;100.00
63111;BME280;49201;53.426;10.300;2023-01-24T06:16:26;104115.06;;;2.98;100.00
63111;BME280;49201;53.426;10.300;2023-01-24T06:18:53;104117.25;;;2.95;100.00
63111;BME280;49201;53.426;10.300;2023-01-24T06:24:04;104119.38;;;2.99;100.00
63111;BME280;49201;53.426;10.300;2023-01-24T06:26:47;104117.75;;;3.00;100.00
63111;BME280;49201;53.426;10.300;2023-01-24T06:29:13;104125.00;;;2.97;100.00
63111;BME280;49201;53.426;10.300;2023-01-24T06:37:29;104132.44;;;2.95;100.00
63111;BME280;49201;53.426;10.300;2023-01-24T06:39:58;104126.50;;;2.95;100.00
63111;BME280;49201;53.426;10.300;2023-01-24T06:42:24;104136.47;;;2.93;100.00
63111;BME280;49201;53.426;10.300;2023-01-24T06:44:49;104134.19;;;2.88;100.00
63111;BME280;49201;53.426;10.300;2023-01-24T06:47:15;104140.00;;;2.87;100.00
63111;BME280;49201;53.426;10.300;2023-01-24T06:49:41;104136.31;;;2.92;100.00
63111;BME280;49201;53.426;10.300;2023-01-24T06:52:06;104141.53;;;2.93;100.00
63111;BME280;49201;53.426;10.300;2023-01-24T06:54:33;104140.78;;;2.94;100.00
63111;BME280;49201;53.426;10.300;2023-01-24T06:56:59;104133.03;;;2.93;100.00
63111;BME280;49201;53.426;10.300;2023-01-24T06:59:25;104135.56;;;2.93;100.00
63111;BME280;49201;53.426;10.300;2023-01-24T07:01:50;104135.72;;;2.94;100.00
63111;BME280;49201;53.426;10.300;2023-01-24T07:04:16;104140.94;;;2.96;100.00
63111;BME280;49201;53.426;10.300;2023-01-24T07:06:42;104137.22;;;2.92;100.00
63111;BME280;49201;53.426;10.300;2023-01-24T07:09:08;104138.81;;;2.92;100.00
63111;BME280;49201;53.426;10.300;2023-01-24T07:11:33;104142.44;;;2.94;100.00
63111;BME280;49201;53.426;10.300;2023-01-24T07:13:59;104145.69;;;2.93;100.00
63111;BME280;49201;53.426;10.300;2023-01-24T07:16:24;104147.34;;;2.92;100.00
63111;BME280;49201;53.426;10.300;2023-01-24T07:18:50;104152.06;;;2.89;100.00
63111;BME280;49201;53.426;10.300;2023-01-24T07:21:16;104154.91;;;2.92;100.00
63111;BME280;49201;53.426;10.300;2023-01-24T07:23:47;104162.69;;;2.94;100.00
63111;BME280;49201;53.426;10.300;2023-01-24T07:26:14;104167.00;;;2.95;100.00
63111;BME280;49201;53.426;10.300;2023-01-24T07:28:39;104168.44;;;2.93;100.00
63111;BME280;49201;53.426;10.300;2023-01-24T07:31:06;104169.19;;;2.92;100.00
63111;BME280;49201;53.426;10.300;2023-01-24T07:33:31;104175.00;;;2.91;100.00
63111;BME280;49201;53.426;10.300;2023-01-24T07:35:57;104173.66;;;2.94;100.00
63111;BME280;49201;53.426;10.300;2023-01-24T07:38:22;104180.53;;;2.95;100.00
63111;BME280;49201;53.426;10.300;2023-01-24T07:40:48;104175.91;;;2.91;100.00
63111;BME280;49201;53.426;10.300;2023-01-24T07:43:13;104179.59;;;2.86;100.00
63111;BME280;49201;53.426;10.300;2023-01-24T07:45:39;104184.97;;;2.89;100.00
63111;BME280;49201;53.426;10.300;2023-01-24T07:48:07;104189.59;;;2.93;100.00
63111;BME280;49201;53.426;10.300;2023-01-24T07:50:33;104189.75;;;2.95;100.00
63111;BME280;49201;53.426;10.300;2023-01-24T07:52:59;104189.03;;;2.96;100.00
63111;BME280;49201;53.426;10.300;2023-01-24T07:55:25;104185.75;;;2.97;100.00
63111;BME280;49201;53.426;10.300;2023-01-24T07:57:51;104190.22;;;2.99;100.00
63111;BME280;49201;53.426;10.300;2023-01-24T08:00:17;104186.31;;;2.94;100.00
63111;BME280;49201;53.426;10.300;2023-01-24T08:02:43;104193.03;;;2.94;100.00
63111;BME280;49201;53.426;10.300;2023-01-24T08:05:09;104191.34;;;2.86;100.00
63111;BME280;49201;53.426;10.300;2023-01-24T08:07:35;104199.84;;;2.86;100.00
63111;BME280;49201;53.426;10.300;2023-01-24T08:10:01;104194.34;;;2.90;100.00
63111;BME280;49201;53.426;10.300;2023-01-24T08:12:26;104197.34;;;2.95;100.00
63111;BME280;49201;53.426;10.300;2023-01-24T08:14:52;104195.56;;;2.94;100.00
63111;BME280;49201;53.426;10.300;2023-01-24T08:17:17;104203.88;;;2.93;100.00
63111;BME280;49201;53.426;10.300;2023-01-24T08:19:43;104199.16;;;2.96;100.00
63111;BME280;49201;53.426;10.300;2023-01-24T08:22:08;104203.78;;;3.00;100.00
63111;BME280;49201;53.426;10.300;2023-01-24T08:24:34;104211.22;;;2.98;100.00
63111;BME280;49201;53.426;10.300;2023-01-24T08:27:01;104198.22;;;2.95;100.00
63111;BME280;49201;53.426;10.300;2023-01-24T08:29:26;104193.91;;;2.94;100.00
63111;BME280;49201;53.426;10.300;2023-01-24T08:31:52;104198.22;;;2.95;100.00
63111;BME280;49201;53.426;10.300;2023-01-24T08:34:17;104194.25;;;2.97;100.00
63111;BME280;49201;53.426;10.300;2023-01-24T08:36:43;104203.16;;;2.94;100.00
63111;BME280;49201;53.426;10.300;2023-01-24T08:39:08;104204.03;;;2.94;100.00
63111;BME280;49201;53.426;10.300;2023-01-24T08:41:34;104209.44;;;2.97;100.00
63111;BME280;49201;53.426;10.300;2023-01-24T08:44:00;104209.44;;;2.97;100.00
63111;BME280;49201;53.426;10.300;2023-01-24T08:46:28;104205.25;;;2.98;100.00
63111;BME280;49201;53.426;10.300;2023-01-24T08:48:53;104210.63;;;3.01;100.00
63111;BME280;49201;53.426;10.300;2023-01-24T08:51:19;104209.00;;;3.01;100.00
63111;BME280;49201;53.426;10.300;2023-01-24T08:53:44;104196.19;;;3.00;100.00
63111;BME280;49201;53.426;10.300;2023-01-24T08:56:10;104206.31;;;3.00;100.00
63111;BME280;49201;53.426;10.300;2023-01-24T08:58:35;104200.50;;;3.01;100.00
63111;BME280;49201;53.426;10.300;2023-01-24T09:01:06;104207.53;;;3.03;100.00
63111;BME280;49201;53.426;10.300;2023-01-24T09:03:31;104207.69;;;3.05;100.00
63111;BME280;49201;53.426;10.300;2023-01-24T09:05:57;104219.00;;;3.08;100.00
63111;BME280;49201;53.426;10.300;2023-01-24T09:08:23;104206.53;;;3.10;100.00
63111;BME280;49201;53.426;10.300;2023-01-24T09:10:48;104204.75;;;3.09;100.00
63111;BME280;49201;53.426;10.300;2023-01-24T09:13:14;104207.44;;;3.10;100.00
63111;BME280;49201;53.426;10.300;2023-01-24T09:15:39;104212.94;;;3.15;100.00
63111;BME280;49201;53.426;10.300;2023-01-24T09:18:05;104206.44;;;3.17;100.00
63111;BME280;49201;53.426;10.300;2023-01-24T09:20:30;104208.97;;;3.17;100.00
63111;BME280;49201;53.426;10.300;2023-01-24T09:22:56;104216.41;;;3.15;100.00
63111;BME280;49201;53.426;10.300;2023-01-24T09:25:21;104213.28;;;3.18;100.00
63111;BME280;49201;53.426;10.300;2023-01-24T09:27:54;104214.44;;;3.13;100.00
63111;BME280;49201;53.426;10.300;2023-01-24T09:30:20;104216.56;;;3.17;100.00
63111;BME280;49201;53.426;10.300;2023-01-24T09:32:47;104219.22;;;3.18;100.00
63111;BME280;49201;53.426;10.300;2023-01-24T09:35:13;104220.72;;;3.16;100.00
63111;BME280;49201;53.426;10.300;2023-01-24T09:37:38;104227.88;;;3.20;100.00
63111;BME280;49201;53.426;10.300;2023-01-24T09:40:09;104223.84;;;3.22;100.00
63111;BME280;49201;53.426;10.300;2023-01-24T09:42:46;104222.97;;;3.22;100.00
63111;BME280;49201;53.426;10.300;2023-01-24T09:45:28;104220.44;;;3.22;100.00
63111;BME280;49201;53.426;10.300;2023-01-24T09:48:00;104224.78;;;3.23;100.00
63111;BME280;49201;53.426;10.300;2023-01-24T09:50:33;104220.28;;;3.20;100.00
63111;BME280;49201;53.426;10.300;2023-01-24T09:53:01;104226.09;;;3.19;100.00
63111;BME280;49201;53.426;10.300;2023-01-24T09:55:29;104225.50;;;3.22;100.00
63111;BME280;49201;53.426;10.300;2023-01-24T10:00:31;104225.69;;;3.23;100.00
63111;BME280;49201;53.426;10.300;2023-01-24T10:02:59;104218.50;;;3.19;100.00
63111;BME280;49201;53.426;10.300;2023-01-24T10:05:37;104218.78;;;3.22;100.00
63111;BME280;49201;53.426;10.300;2023-01-24T10:08:24;104219.72;;;3.23;100.00
63111;BME280;49201;53.426;10.300;2023-01-24T10:24:36;104219.53;;;3.21;100.00
63111;BME280;49201;53.426;10.300;2023-01-24T10:27:16;104220.91;;;3.26;100.00
63111;BME280;49201;53.426;10.300;2023-01-24T10:29:43;104213.47;;;3.28;100.00
63111;BME280;49201;53.426;10.300;2023-01-24T10:32:20;104208.41;;;3.28;100.00
63111;BME280;49201;53.426;10.300;2023-01-24T10:34:57;104208.88;;;3.32;100.00
63111;BME280;49201;53.426;10.300;2023-01-24T10:37:25;104213.50;;;3.36;100.00
63111;BME280;49201;53.426;10.300;2023-01-24T10:39:53;104210.53;;;3.32;100.00
63111;BME280;49201;53.426;10.300;2023-01-24T10:42:30;104202.50;;;3.36;100.00
63111;BME280;49201;53.426;10.300;2023-01-24T10:45:00;104196.84;;;3.38;100.00
63111;BME280;49201;53.426;10.300;2023-01-24T10:49:57;104194.16;;;3.37;100.00
63111;BME280;49201;53.426;10.300;2023-01-24T10:52:24;104198.03;;;3.33;100.00
63111;BME280;49201;53.426;10.300;2023-01-24T10:54:52;104192.53;;;3.37;100.00
63111;BME280;49201;53.426;10.300;2023-01-24T10:57:38;104182.84;;;3.33;100.00
63111;BME280;49201;53.426;10.300;2023-01-24T11:00:33;104171.63;;;3.31;100.00
63111;BME280;49201;53.426;10.300;2023-01-24T11:03:22;104169.84;;;3.30;100.00
63111;BME280;49201;53.426;10.300;2023-01-24T11:05:50;104165.53;;;3.29;100.00
63111;BME280;49201;53.426;10.300;2023-01-24T11:08:19;104168.34;;;3.32;100.00
63111;BME280;49201;53.426;10.300;2023-01-24T11:10:45;104167.00;;;3.27;100.00
63111;BME280;49201;53.426;10.300;2023-01-24T11:13:38;104170.59;;;3.29;100.00
63111;BME280;49201;53.426;10.300;2023-01-24T11:18:51;104164.19;;;3.33;100.00
63111;BME280;49201;53.426;10.300;2023-01-24T11:21:19;104163.63;;;3.35;100.00
63111;BME280;49201;53.426;10.300;2023-01-24T11:23:45;104165.41;;;3.36;100.00
63111;BME280;49201;53.426;10.300;2023-01-24T11:26:29;104157.50;;;3.33;100.00
63111;BME280;49201;53.426;10.300;2023-01-24T11:29:14;104164.69;;;3.37;100.00
63111;BME280;49201;53.426;10.300;2023-01-24T11:31:45;104172.41;;;3.39;100.00
63111;BME280;49201;53.426;10.300;2023-01-24T11:42:25;104163.94;;;3.38;100.00
63111;BME280;49201;53.426;10.300;2023-01-24T11:45:19;104159.47;;;3.36;100.00
63111;BME280;49201;53.426;10.300;2023-01-24T11:59:24;104157.88;;;3.21;100.00
63111;BME280;49201;53.426;10.300;2023-01-24T12:10:08;104153.97;;;3.16;100.00
63111;BME280;49201;53.426;10.300;2023-01-24T12:12:44;104150.16;;;3.19;100.00
63111;BME280;49201;53.426;10.300;2023-01-24T12:15:26;104149.09;;;3.17;100.00
63111;BME280;49201;53.426;10.300;2023-01-24T12:18:18;104144.34;;;3.20;100.00
63111;BME280;49201;53.426;10.300;2023-01-24T12:20:58;104147.03;;;3.22;100.00
63111;BME280;49201;53.426;10.300;2023-01-24T12:26:12;104151.34;;;3.23;100.00
63111;BME280;49201;53.426;10.300;2023-01-24T12:28:49;104142.56;;;3.19;100.00
63111;BME280;49201;53.426;10.300;2023-01-24T12:31:26;104148.22;;;3.17;100.00
63111;BME280;49201;53.426;10.300;2023-01-24T12:34:13;104143.44;;;3.20;100.00
63111;BME280;49201;53.426;10.300;2023-01-24T12:36:47;104142.69;;;3.21;100.00
63111;BME280;49201;53.426;10.300;2023-01-24T12:39:21;104143.16;;;3.25;100.00
63111;BME280;49201;53.426;10.300;2023-01-24T12:41:56;104135.00;;;3.28;100.00
63111;BME280;49201;53.426;10.300;2023-01-24T12:44:31;104132.28;;;3.26;100.00
63111;BME280;49201;53.426;10.300;2023-01-24T12:47:23;104131.41;;;3.26;100.00
63111;BME280;49201;53.426;10.300;2023-01-24T12:50:12;104127.50;;;3.21;100.00
63111;BME280;49201;53.426;10.300;2023-01-24T12:52:54;104128.25;;;3.20;100.00
63111;BME280;49201;53.426;10.300;2023-01-24T12:55:37;104121.81;;;3.15;100.00
63111;BME280;49201;53.426;10.300;2023-01-24T12:58:18;104127.78;;;3.15;100.00
63111;BME280;49201;53.426;10.300;2023-01-24T13:11:44;104096.22;;;3.12;100.00
63111;BME280;49201;53.426;10.300;2023-01-24T13:16:57;104091.88;;;3.11;100.00
63111;BME280;49201;53.426;10.300;2023-01-24T13:25:28;104082.47;;;3.01;100.00
63111;BME280;49201;53.426;10.300;2023-01-24T13:28:03;104084.22;;;2.94;100.00
63111;BME280;49201;53.426;10.300;2023-01-24T13:32:59;104082.75;;;2.96;100.00
63111;BME280;49201;53.426;10.300;2023-01-24T13:35:28;104088.53;;;2.86;100.00
63111;BME280;49201;53.426;10.300;2023-01-24T13:38:05;104079.75;;;2.91;100.00
63111;BME280;49201;53.426;10.300;2023-01-24T13:40:40;104081.84;;;2.95;100.00
63111;BME280;49201;53.426;10.300;2023-01-24T13:46:13;104076.19;;;2.98;100.00
63111;BME280;49201;53.426;10.300;2023-01-24T13:48:46;104085.44;;;2.97;100.00
63111;BME280;49201;53.426;10.300;2023-01-24T13:54:16;104084.69;;;2.98;100.00
63111;BME280;49201;53.426;10.300;2023-01-24T13:59:37;104084.06;;;2.92;100.00
63111;BME280;49201;53.426;10.300;2023-01-24T14:02:03;104090.47;;;2.89;100.00
63111;BME280;49201;53.426;10.300;2023-01-24T14:04:47;104087.34;;;2.91;100.00
63111;BME280;49201;53.426;10.300;2023-01-24T14:07:29;104096.25;;;2.88;100.00
63111;BME280;49201;53.426;10.300;2023-01-24T14:10:00;104094.72;;;2.81;100.00
63111;BME280;49201;53.426;10.300;2023-01-24T14:12:27;104094.28;;;2.85;100.00
63111;BME280;49201;53.426;10.300;2023-01-24T14:17:30;104090.56;;;2.82;100.00
63111;BME280;49201;53.426;10.300;2023-01-24T14:23:22;104090.88;;;2.85;100.00
63111;BME280;49201;53.426;10.300;2023-01-24T14:25:55;104092.19;;;2.81;100.00
63111;BME280;49201;53.426;10.300;2023-01-24T14:31:04;104087.44;;;2.84;100.00
63111;BME280;49201;53.426;10.300;2023-01-24T14:33:39;104087.78;;;2.87;100.00
63111;BME280;49201;53.426;10.300;2023-01-24T14:36:23;104077.84;;;2.97;100.00
63111;BME280;49201;53.426;10.300;2023-01-24T14:39:18;104077.44;;;3.10;100.00
63111;BME280;49201;53.426;10.300;2023-01-24T14:41:47;104079.53;;;3.14;100.00
63111;BME280;49201;53.426;10.300;2023-01-24T14:44:25;104086.53;;;3.08;100.00